Hayfield, Minnesota
Current Conditions -  °F | °C
As of 5:14 PM on Sunday 21 Dec 2014 (Local Time) from KTOB Reporting Station
Haze Haze  
Wind Chill: 27°   Ceiling: 700
Heat Index: 37°   Visibility: 5mi
Dew Point: 36°   Wind: 18mph
Humidity: 93%   Direction: 190°S
Pressure: 29.75"   Gusts: 24mph
Location:  43.89°N, 92.85°W
Report Text: KTOB 212314Z AUTO 19016G21KT 5SM BR OVC007 03/02 A2975 RMK AO2
Loading
Personal Weather Stations






























Interactive Weather Map New forecast layout! Learn more

10-Day Weather Forecast

Advertisements
Track Severe Weather on mobile